sensor_id;sensor_type;location;lat;lon;timestamp;P1;durP1;ratioP1;P2;durP2;ratioP2
11344;SDS011;5727;42.600;23.028;2022-08-18T00:00:07;7.23;;;4.40;;
11344;SDS011;5727;42.600;23.028;2022-08-18T00:02:37;6.07;;;4.70;;
11344;SDS011;5727;42.600;23.028;2022-08-18T00:05:07;4.63;;;4.13;;
11344;SDS011;5727;42.600;23.028;2022-08-18T00:07:34;8.47;;;4.33;;
11344;SDS011;5727;42.600;23.028;2022-08-18T00:10:02;7.03;;;4.10;;
11344;SDS011;5727;42.600;23.028;2022-08-18T00:12:32;6.17;;;4.33;;
11344;SDS011;5727;42.600;23.028;2022-08-18T00:15:02;4.87;;;4.37;;
11344;SDS011;5727;42.600;23.028;2022-08-18T00:17:30;8.50;;;4.73;;
11344;SDS011;5727;42.600;23.028;2022-08-18T00:19:58;5.73;;;4.13;;
11344;SDS011;5727;42.600;23.028;2022-08-18T00:22:25;6.67;;;4.50;;
11344;SDS011;5727;42.600;23.028;2022-08-18T00:24:53;7.63;;;4.73;;
11344;SDS011;5727;42.600;23.028;2022-08-18T00:27:23;6.50;;;4.57;;
11344;SDS011;5727;42.600;23.028;2022-08-18T00:29:52;7.33;;;4.53;;
11344;SDS011;5727;42.600;23.028;2022-08-18T00:32:21;8.67;;;5.43;;
11344;SDS011;5727;42.600;23.028;2022-08-18T00:34:49;8.53;;;4.63;;
11344;SDS011;5727;42.600;23.028;2022-08-18T00:37:17;6.57;;;4.93;;
11344;SDS011;5727;42.600;23.028;2022-08-18T00:39:44;7.97;;;4.90;;
11344;SDS011;5727;42.600;23.028;2022-08-18T00:42:11;6.40;;;4.73;;
11344;SDS011;5727;42.600;23.028;2022-08-18T00:44:40;7.10;;;5.13;;
11344;SDS011;5727;42.600;23.028;2022-08-18T00:47:08;6.37;;;5.40;;
11344;SDS011;5727;42.600;23.028;2022-08-18T00:49:35;9.43;;;5.23;;
11344;SDS011;5727;42.600;23.028;2022-08-18T00:52:03;5.87;;;4.90;;
11344;SDS011;5727;42.600;23.028;2022-08-18T00:54:32;6.70;;;4.40;;
11344;SDS011;5727;42.600;23.028;2022-08-18T00:57:03;6.93;;;4.90;;
11344;SDS011;5727;42.600;23.028;2022-08-18T00:59:33;5.13;;;4.50;;
11344;SDS011;5727;42.600;23.028;2022-08-18T01:02:13;6.67;;;4.90;;
11344;SDS011;5727;42.600;23.028;2022-08-18T01:04:47;7.03;;;4.73;;
11344;SDS011;5727;42.600;23.028;2022-08-18T01:07:20;5.90;;;4.50;;
11344;SDS011;5727;42.600;23.028;2022-08-18T01:09:54;6.40;;;4.97;;
11344;SDS011;5727;42.600;23.028;2022-08-18T01:12:23;7.30;;;4.30;;
11344;SDS011;5727;42.600;23.028;2022-08-18T01:14:51;5.30;;;4.80;;
11344;SDS011;5727;42.600;23.028;2022-08-18T01:17:21;6.03;;;4.80;;
11344;SDS011;5727;42.600;23.028;2022-08-18T01:20:06;7.13;;;5.03;;
11344;SDS011;5727;42.600;23.028;2022-08-18T01:22:58;6.40;;;5.13;;
11344;SDS011;5727;42.600;23.028;2022-08-18T01:25:29;6.80;;;5.30;;
11344;SDS011;5727;42.600;23.028;2022-08-18T01:28:15;7.47;;;4.43;;
11344;SDS011;5727;42.600;23.028;2022-08-18T01:30:44;6.03;;;5.43;;
11344;SDS011;5727;42.600;23.028;2022-08-18T01:33:13;7.67;;;5.23;;
11344;SDS011;5727;42.600;23.028;2022-08-18T01:35:41;8.53;;;5.10;;
11344;SDS011;5727;42.600;23.028;2022-08-18T01:38:15;8.53;;;5.53;;
11344;SDS011;5727;42.600;23.028;2022-08-18T01:40:43;7.93;;;5.07;;
11344;SDS011;5727;42.600;23.028;2022-08-18T01:43:11;8.27;;;5.27;;
11344;SDS011;5727;42.600;23.028;2022-08-18T01:45:38;7.37;;;5.20;;
11344;SDS011;5727;42.600;23.028;2022-08-18T01:48:06;8.67;;;6.13;;
11344;SDS011;5727;42.600;23.028;2022-08-18T01:50:34;8.00;;;6.07;;
11344;SDS011;5727;42.600;23.028;2022-08-18T01:53:03;5.70;;;5.07;;
11344;SDS011;5727;42.600;23.028;2022-08-18T01:55:33;7.13;;;5.20;;
11344;SDS011;5727;42.600;23.028;2022-08-18T01:58:00;7.43;;;4.97;;
11344;SDS011;5727;42.600;23.028;2022-08-18T02:00:28;8.30;;;5.60;;
11344;SDS011;5727;42.600;23.028;2022-08-18T02:02:56;6.27;;;5.50;;
11344;SDS011;5727;42.600;23.028;2022-08-18T02:05:26;6.77;;;5.70;;
11344;SDS011;5727;42.600;23.028;2022-08-18T02:07:57;9.30;;;5.87;;
11344;SDS011;5727;42.600;23.028;2022-08-18T02:10:24;7.60;;;5.30;;
11344;SDS011;5727;42.600;23.028;2022-08-18T02:12:53;7.93;;;5.90;;
11344;SDS011;5727;42.600;23.028;2022-08-18T02:15:19;8.90;;;5.23;;
11344;SDS011;5727;42.600;23.028;2022-08-18T02:17:46;7.30;;;5.43;;
11344;SDS011;5727;42.600;23.028;2022-08-18T02:20:14;7.47;;;5.70;;
11344;SDS011;5727;42.600;23.028;2022-08-18T02:22:43;8.53;;;5.73;;
11344;SDS011;5727;42.600;23.028;2022-08-18T02:25:11;6.10;;;5.50;;
11344;SDS011;5727;42.600;23.028;2022-08-18T02:27:39;6.60;;;5.70;;
11344;SDS011;5727;42.600;23.028;2022-08-18T02:30:09;5.63;;;5.03;;
11344;SDS011;5727;42.600;23.028;2022-08-18T02:32:39;10.13;;;5.97;;
11344;SDS011;5727;42.600;23.028;2022-08-18T02:35:06;7.40;;;5.40;;
11344;SDS011;5727;42.600;23.028;2022-08-18T02:37:35;8.70;;;5.73;;
11344;SDS011;5727;42.600;23.028;2022-08-18T02:40:02;6.53;;;5.87;;
11344;SDS011;5727;42.600;23.028;2022-08-18T02:42:30;8.17;;;5.57;;
11344;SDS011;5727;42.600;23.028;2022-08-18T02:44:56;6.00;;;5.40;;
11344;SDS011;5727;42.600;23.028;2022-08-18T02:47:24;6.73;;;5.63;;
11344;SDS011;5727;42.600;23.028;2022-08-18T02:49:51;8.50;;;5.70;;
11344;SDS011;5727;42.600;23.028;2022-08-18T02:52:18;8.50;;;5.73;;
11344;SDS011;5727;42.600;23.028;2022-08-18T02:54:45;8.70;;;5.40;;
11344;SDS011;5727;42.600;23.028;2022-08-18T02:57:12;9.13;;;5.63;;
11344;SDS011;5727;42.600;23.028;2022-08-18T02:59:39;8.47;;;5.97;;
11344;SDS011;5727;42.600;23.028;2022-08-18T03:02:07;7.73;;;5.80;;
11344;SDS011;5727;42.600;23.028;2022-08-18T03:04:37;6.03;;;5.17;;
11344;SDS011;5727;42.600;23.028;2022-08-18T03:07:05;9.77;;;6.07;;
11344;SDS011;5727;42.600;23.028;2022-08-18T03:09:32;7.83;;;5.30;;
11344;SDS011;5727;42.600;23.028;2022-08-18T03:12:00;9.30;;;6.00;;
11344;SDS011;5727;42.600;23.028;2022-08-18T03:14:28;10.90;;;6.33;;
11344;SDS011;5727;42.600;23.028;2022-08-18T03:16:55;10.60;;;6.07;;
11344;SDS011;5727;42.600;23.028;2022-08-18T03:19:22;8.63;;;6.47;;
11344;SDS011;5727;42.600;23.028;2022-08-18T03:21:51;8.37;;;6.77;;
11344;SDS011;5727;42.600;23.028;2022-08-18T03:24:19;8.50;;;6.53;;
11344;SDS011;5727;42.600;23.028;2022-08-18T03:26:46;9.90;;;6.03;;
11344;SDS011;5727;42.600;23.028;2022-08-18T03:29:13;8.97;;;6.47;;
11344;SDS011;5727;42.600;23.028;2022-08-18T03:31:40;7.40;;;6.27;;
11344;SDS011;5727;42.600;23.028;2022-08-18T03:34:09;10.90;;;5.90;;
11344;SDS011;5727;42.600;23.028;2022-08-18T03:36:37;11.07;;;6.73;;
11344;SDS011;5727;42.600;23.028;2022-08-18T03:39:06;8.40;;;6.50;;
11344;SDS011;5727;42.600;23.028;2022-08-18T03:41:36;11.40;;;6.20;;
11344;SDS011;5727;42.600;23.028;2022-08-18T03:44:04;10.83;;;6.63;;
11344;SDS011;5727;42.600;23.028;2022-08-18T03:46:31;6.90;;;5.90;;
11344;SDS011;5727;42.600;23.028;2022-08-18T03:48:58;11.37;;;6.73;;
11344;SDS011;5727;42.600;23.028;2022-08-18T03:51:26;10.27;;;6.13;;
11344;SDS011;5727;42.600;23.028;2022-08-18T03:53:58;13.73;;;6.33;;
11344;SDS011;5727;42.600;23.028;2022-08-18T03:56:28;8.13;;;6.27;;
11344;SDS011;5727;42.600;23.028;2022-08-18T03:58:58;8.50;;;6.50;;
11344;SDS011;5727;42.600;23.028;2022-08-18T04:01:28;8.33;;;6.30;;
11344;SDS011;5727;42.600;23.028;2022-08-18T04:03:57;9.93;;;6.93;;
11344;SDS011;5727;42.600;23.028;2022-08-18T04:06:28;11.13;;;6.80;;
11344;SDS011;5727;42.600;23.028;2022-08-18T04:08:57;16.33;;;7.13;;
11344;SDS011;5727;42.600;23.028;2022-08-18T04:11:25;14.43;;;6.87;;
11344;SDS011;5727;42.600;23.028;2022-08-18T04:13:54;8.50;;;7.13;;
11344;SDS011;5727;42.600;23.028;2022-08-18T04:16:22;9.87;;;7.57;;
11344;SDS011;5727;42.600;23.028;2022-08-18T04:18:49;11.50;;;6.67;;
11344;SDS011;5727;42.600;23.028;2022-08-18T04:21:16;10.07;;;7.10;;
11344;SDS011;5727;42.600;23.028;2022-08-18T04:23:43;7.33;;;6.33;;
11344;SDS011;5727;42.600;23.028;2022-08-18T04:26:10;11.10;;;6.40;;
11344;SDS011;5727;42.600;23.028;2022-08-18T04:28:37;8.70;;;6.60;;
11344;SDS011;5727;42.600;23.028;2022-08-18T04:31:08;10.30;;;6.40;;
11344;SDS011;5727;42.600;23.028;2022-08-18T04:33:37;8.97;;;6.50;;
11344;SDS011;5727;42.600;23.028;2022-08-18T04:36:08;11.03;;;6.90;;
11344;SDS011;5727;42.600;23.028;2022-08-18T04:38:36;12.90;;;6.43;;
11344;SDS011;5727;42.600;23.028;2022-08-18T04:41:05;13.07;;;6.33;;
11344;SDS011;5727;42.600;23.028;2022-08-18T04:43:32;10.73;;;6.67;;
11344;SDS011;5727;42.600;23.028;2022-08-18T04:45:59;9.43;;;6.63;;
11344;SDS011;5727;42.600;23.028;2022-08-18T04:48:29;11.87;;;6.73;;
11344;SDS011;5727;42.600;23.028;2022-08-18T04:51:02;11.03;;;6.50;;
11344;SDS011;5727;42.600;23.028;2022-08-18T04:53:31;16.93;;;7.20;;
11344;SDS011;5727;42.600;23.028;2022-08-18T04:56:12;8.87;;;7.40;;
11344;SDS011;5727;42.600;23.028;2022-08-18T04:58:43;12.50;;;7.23;;
11344;SDS011;5727;42.600;23.028;2022-08-18T05:01:16;9.50;;;6.70;;
11344;SDS011;5727;42.600;23.028;2022-08-18T05:03:45;9.10;;;7.20;;
11344;SDS011;5727;42.600;23.028;2022-08-18T05:06:13;12.20;;;7.03;;
11344;SDS011;5727;42.600;23.028;2022-08-18T05:08:40;11.90;;;6.93;;
11344;SDS011;5727;42.600;23.028;2022-08-18T05:11:07;9.17;;;8.00;;
11344;SDS011;5727;42.600;23.028;2022-08-18T05:13:34;14.33;;;8.10;;
11344;SDS011;5727;42.600;23.028;2022-08-18T05:16:02;10.40;;;8.13;;
11344;SDS011;5727;42.600;23.028;2022-08-18T05:18:29;20.97;;;8.87;;
11344;SDS011;5727;42.600;23.028;2022-08-18T05:20:57;16.83;;;8.03;;
11344;SDS011;5727;42.600;23.028;2022-08-18T05:23:25;17.00;;;8.53;;
11344;SDS011;5727;42.600;23.028;2022-08-18T05:25:55;15.27;;;7.83;;
11344;SDS011;5727;42.600;23.028;2022-08-18T05:28:23;13.77;;;7.73;;
11344;SDS011;5727;42.600;23.028;2022-08-18T05:30:50;62.57;;;14.53;;
11344;SDS011;5727;42.600;23.028;2022-08-18T05:33:17;19.80;;;8.23;;
11344;SDS011;5727;42.600;23.028;2022-08-18T05:35:45;13.10;;;6.83;;
11344;SDS011;5727;42.600;23.028;2022-08-18T05:38:25;11.13;;;7.57;;
11344;SDS011;5727;42.600;23.028;2022-08-18T05:41:02;11.70;;;7.33;;
11344;SDS011;5727;42.600;23.028;2022-08-18T05:43:32;10.47;;;7.50;;
11344;SDS011;5727;42.600;23.028;2022-08-18T05:46:02;12.90;;;7.13;;
11344;SDS011;5727;42.600;23.028;2022-08-18T05:48:31;13.37;;;7.80;;
11344;SDS011;5727;42.600;23.028;2022-08-18T05:51:00;13.47;;;8.30;;
11344;SDS011;5727;42.600;23.028;2022-08-18T05:53:43;8.33;;;7.43;;
11344;SDS011;5727;42.600;23.028;2022-08-18T05:56:29;16.73;;;7.40;;
11344;SDS011;5727;42.600;23.028;2022-08-18T05:59:11;9.13;;;7.30;;
11344;SDS011;5727;42.600;23.028;2022-08-18T06:01:45;42.93;;;9.27;;
11344;SDS011;5727;42.600;23.028;2022-08-18T06:04:20;15.10;;;7.90;;
11344;SDS011;5727;42.600;23.028;2022-08-18T06:06:52;20.50;;;7.67;;
11344;SDS011;5727;42.600;23.028;2022-08-18T06:09:25;15.03;;;7.33;;
11344;SDS011;5727;42.600;23.028;2022-08-18T06:12:02;22.30;;;7.23;;
11344;SDS011;5727;42.600;23.028;2022-08-18T06:14:35;13.33;;;6.87;;
11344;SDS011;5727;42.600;23.028;2022-08-18T06:17:07;11.33;;;6.43;;
11344;SDS011;5727;42.600;23.028;2022-08-18T06:19:48;10.23;;;5.07;;
11344;SDS011;5727;42.600;23.028;2022-08-18T06:22:24;10.67;;;5.73;;
11344;SDS011;5727;42.600;23.028;2022-08-18T06:24:59;11.93;;;5.90;;
11344;SDS011;5727;42.600;23.028;2022-08-18T06:27:32;9.43;;;5.33;;
11344;SDS011;5727;42.600;23.028;2022-08-18T06:30:07;10.00;;;6.00;;
11344;SDS011;5727;42.600;23.028;2022-08-18T06:32:47;12.83;;;6.03;;
11344;SDS011;5727;42.600;23.028;2022-08-18T06:35:26;8.30;;;6.10;;
11344;SDS011;5727;42.600;23.028;2022-08-18T06:38:04;12.93;;;7.43;;
11344;SDS011;5727;42.600;23.028;2022-08-18T06:41:09;15.40;;;7.00;;
11344;SDS011;5727;42.600;23.028;2022-08-18T06:43:40;8.47;;;6.27;;
11344;SDS011;5727;42.600;23.028;2022-08-18T06:46:18;12.13;;;6.97;;
11344;SDS011;5727;42.600;23.028;2022-08-18T06:48:53;12.13;;;6.90;;
11344;SDS011;5727;42.600;23.028;2022-08-18T06:51:26;17.80;;;6.50;;
11344;SDS011;5727;42.600;23.028;2022-08-18T06:53:55;16.87;;;7.10;;
11344;SDS011;5727;42.600;23.028;2022-08-18T06:56:27;7.47;;;6.27;;
11344;SDS011;5727;42.600;23.028;2022-08-18T06:59:12;11.73;;;6.63;;
11344;SDS011;5727;42.600;23.028;2022-08-18T07:01:41;9.07;;;6.07;;
11344;SDS011;5727;42.600;23.028;2022-08-18T07:04:13;8.23;;;5.57;;
11344;SDS011;5727;42.600;23.028;2022-08-18T07:07:11;8.73;;;5.60;;
11344;SDS011;5727;42.600;23.028;2022-08-18T07:09:40;8.10;;;5.57;;
11344;SDS011;5727;42.600;23.028;2022-08-18T07:12:08;8.73;;;5.83;;
11344;SDS011;5727;42.600;23.028;2022-08-18T07:14:43;6.93;;;5.50;;
11344;SDS011;5727;42.600;23.028;2022-08-18T07:17:12;6.53;;;5.17;;
11344;SDS011;5727;42.600;23.028;2022-08-18T07:20:02;10.37;;;4.83;;
11344;SDS011;5727;42.600;23.028;2022-08-18T07:25:20;7.57;;;4.43;;
11344;SDS011;5727;42.600;23.028;2022-08-18T07:27:51;4.40;;;3.90;;
11344;SDS011;5727;42.600;23.028;2022-08-18T07:30:26;4.80;;;3.83;;
11344;SDS011;5727;42.600;23.028;2022-08-18T07:32:57;7.30;;;4.17;;
11344;SDS011;5727;42.600;23.028;2022-08-18T07:35:31;4.77;;;4.03;;
11344;SDS011;5727;42.600;23.028;2022-08-18T07:38:04;44.00;;;7.10;;
11344;SDS011;5727;42.600;23.028;2022-08-18T07:40:44;7.03;;;3.83;;
11344;SDS011;5727;42.600;23.028;2022-08-18T07:43:19;6.43;;;4.10;;
11344;SDS011;5727;42.600;23.028;2022-08-18T07:45:51;6.53;;;3.93;;
11344;SDS011;5727;42.600;23.028;2022-08-18T07:48:23;7.63;;;4.33;;
11344;SDS011;5727;42.600;23.028;2022-08-18T07:50:56;4.47;;;3.73;;
11344;SDS011;5727;42.600;23.028;2022-08-18T07:53:35;8.03;;;3.90;;
11344;SDS011;5727;42.600;23.028;2022-08-18T07:56:11;5.53;;;4.13;;
11344;SDS011;5727;42.600;23.028;2022-08-18T07:58:47;3.77;;;3.37;;
11344;SDS011;5727;42.600;23.028;2022-08-18T08:01:21;9.27;;;4.20;;
11344;SDS011;5727;42.600;23.028;2022-08-18T08:03:56;4.50;;;3.80;;
11344;SDS011;5727;42.600;23.028;2022-08-18T08:06:31;9.80;;;4.30;;
11344;SDS011;5727;42.600;23.028;2022-08-18T08:09:04;4.53;;;4.07;;
11344;SDS011;5727;42.600;23.028;2022-08-18T08:11:39;4.60;;;4.07;;
11344;SDS011;5727;42.600;23.028;2022-08-18T08:14:27;6.87;;;4.30;;
11344;SDS011;5727;42.600;23.028;2022-08-18T08:17:03;6.87;;;4.47;;
11344;SDS011;5727;42.600;23.028;2022-08-18T08:22:30;9.23;;;3.80;;
11344;SDS011;5727;42.600;23.028;2022-08-18T08:25:04;4.17;;;3.70;;
11344;SDS011;5727;42.600;23.028;2022-08-18T08:27:41;7.07;;;3.80;;
11344;SDS011;5727;42.600;23.028;2022-08-18T08:30:22;3.90;;;3.50;;
11344;SDS011;5727;42.600;23.028;2022-08-18T08:32:55;8.57;;;3.93;;
11344;SDS011;5727;42.600;23.028;2022-08-18T08:35:33;5.47;;;3.90;;
11344;SDS011;5727;42.600;23.028;2022-08-18T08:38:05;6.30;;;3.60;;
11344;SDS011;5727;42.600;23.028;2022-08-18T08:40:38;3.63;;;3.27;;
11344;SDS011;5727;42.600;23.028;2022-08-18T08:43:13;5.60;;;3.73;;
11344;SDS011;5727;42.600;23.028;2022-08-18T08:45:47;4.30;;;3.40;;
11344;SDS011;5727;42.600;23.028;2022-08-18T08:48:19;5.83;;;3.70;;
11344;SDS011;5727;42.600;23.028;2022-08-18T08:50:51;7.73;;;3.87;;
11344;SDS011;5727;42.600;23.028;2022-08-18T08:53:24;8.80;;;3.63;;
11344;SDS011;5727;42.600;23.028;2022-08-18T08:55:54;7.97;;;4.23;;
11344;SDS011;5727;42.600;23.028;2022-08-18T08:58:25;7.97;;;4.00;;
11344;SDS011;5727;42.600;23.028;2022-08-18T09:00:57;8.47;;;4.00;;
11344;SDS011;5727;42.600;23.028;2022-08-18T09:03:30;7.80;;;3.70;;
11344;SDS011;5727;42.600;23.028;2022-08-18T09:06:08;5.67;;;3.20;;
11344;SDS011;5727;42.600;23.028;2022-08-18T09:08:56;7.97;;;3.33;;
11344;SDS011;5727;42.600;23.028;2022-08-18T09:11:43;5.23;;;3.83;;
11344;SDS011;5727;42.600;23.028;2022-08-18T09:14:29;8.90;;;3.67;;
11344;SDS011;5727;42.600;23.028;2022-08-18T09:17:15;4.03;;;3.63;;
11344;SDS011;5727;42.600;23.028;2022-08-18T09:20:03;4.78;;;3.60;;
11344;SDS011;5727;42.600;23.028;2022-08-18T09:22:43;6.00;;;4.32;;
11344;SDS011;5727;42.600;23.028;2022-08-18T09:25:29;7.18;;;4.38;;
11344;SDS011;5727;42.600;23.028;2022-08-18T09:28:05;6.15;;;3.92;;
11344;SDS011;5727;42.600;23.028;2022-08-18T09:30:41;10.23;;;4.00;;
11344;SDS011;5727;42.600;23.028;2022-08-18T09:33:18;5.20;;;3.85;;
11344;SDS011;5727;42.600;23.028;2022-08-18T09:36:05;7.25;;;3.85;;
11344;SDS011;5727;42.600;23.028;2022-08-18T09:38:48;5.00;;;3.38;;
11344;SDS011;5727;42.600;23.028;2022-08-18T09:41:37;6.10;;;3.85;;
11344;SDS011;5727;42.600;23.028;2022-08-18T09:44:13;6.00;;;4.30;;
11344;SDS011;5727;42.600;23.028;2022-08-18T09:47:00;6.57;;;3.70;;
11344;SDS011;5727;42.600;23.028;2022-08-18T09:55:36;3.08;;;2.30;;
11344;SDS011;5727;42.600;23.028;2022-08-18T09:58:13;5.05;;;3.00;;
11344;SDS011;5727;42.600;23.028;2022-08-18T10:00:44;3.53;;;2.45;;
11344;SDS011;5727;42.600;23.028;2022-08-18T10:03:31;7.18;;;3.30;;
11344;SDS011;5727;42.600;23.028;2022-08-18T10:06:11;5.28;;;2.53;;
11344;SDS011;5727;42.600;23.028;2022-08-18T10:08:49;5.20;;;2.72;;
11344;SDS011;5727;42.600;23.028;2022-08-18T10:11:43;5.70;;;2.75;;
11344;SDS011;5727;42.600;23.028;2022-08-18T10:14:36;4.20;;;2.35;;
11344;SDS011;5727;42.600;23.028;2022-08-18T10:17:22;5.35;;;2.70;;
11344;SDS011;5727;42.600;23.028;2022-08-18T10:20:09;4.07;;;3.05;;
11344;SDS011;5727;42.600;23.028;2022-08-18T10:22:50;6.20;;;2.53;;
11344;SDS011;5727;42.600;23.028;2022-08-18T10:25:29;6.38;;;2.53;;
11344;SDS011;5727;42.600;23.028;2022-08-18T10:27:59;5.78;;;2.53;;
11344;SDS011;5727;42.600;23.028;2022-08-18T10:33:13;3.03;;;2.20;;
11344;SDS011;5727;42.600;23.028;2022-08-18T10:36:31;6.78;;;2.40;;
11344;SDS011;5727;42.600;23.028;2022-08-18T10:39:04;4.43;;;2.35;;
11344;SDS011;5727;42.600;23.028;2022-08-18T10:41:32;6.18;;;2.88;;
11344;SDS011;5727;42.600;23.028;2022-08-18T10:44:02;3.40;;;2.40;;
11344;SDS011;5727;42.600;23.028;2022-08-18T10:46:32;4.13;;;1.90;;
11344;SDS011;5727;42.600;23.028;2022-08-18T10:49:14;3.13;;;2.13;;
11344;SDS011;5727;42.600;23.028;2022-08-18T10:51:55;3.25;;;1.80;;
11344;SDS011;5727;42.600;23.028;2022-08-18T10:54:49;10.35;;;2.30;;
11344;SDS011;5727;42.600;23.028;2022-08-18T11:01:01;5.70;;;2.28;;
11344;SDS011;5727;42.600;23.028;2022-08-18T11:03:48;5.45;;;2.22;;
11344;SDS011;5727;42.600;23.028;2022-08-18T11:06:27;14.82;;;3.20;;
11344;SDS011;5727;42.600;23.028;2022-08-18T11:08:56;6.68;;;2.85;;
11344;SDS011;5727;42.600;23.028;2022-08-18T11:11:29;2.55;;;2.15;;
11344;SDS011;5727;42.600;23.028;2022-08-18T11:14:02;3.38;;;2.25;;
11344;SDS011;5727;42.600;23.028;2022-08-18T11:16:43;3.20;;;2.35;;
11344;SDS011;5727;42.600;23.028;2022-08-18T11:19:19;5.63;;;2.50;;
11344;SDS011;5727;42.600;23.028;2022-08-18T11:21:48;8.55;;;2.78;;
11344;SDS011;5727;42.600;23.028;2022-08-18T11:24:17;9.45;;;2.38;;
11344;SDS011;5727;42.600;23.028;2022-08-18T11:26:48;3.63;;;2.03;;
11344;SDS011;5727;42.600;23.028;2022-08-18T11:29:21;3.53;;;1.90;;
11344;SDS011;5727;42.600;23.028;2022-08-18T11:31:55;2.70;;;2.15;;
11344;SDS011;5727;42.600;23.028;2022-08-18T11:34:26;4.20;;;2.85;;
11344;SDS011;5727;42.600;23.028;2022-08-18T11:36:57;2.92;;;2.10;;
11344;SDS011;5727;42.600;23.028;2022-08-18T11:39:26;4.65;;;2.35;;
11344;SDS011;5727;42.600;23.028;2022-08-18T11:41:55;4.82;;;1.98;;
11344;SDS011;5727;42.600;23.028;2022-08-18T11:44:24;5.05;;;2.55;;
11344;SDS011;5727;42.600;23.028;2022-08-18T11:47:07;4.40;;;1.95;;
11344;SDS011;5727;42.600;23.028;2022-08-18T11:49:43;23.45;;;4.10;;
11344;SDS011;5727;42.600;23.028;2022-08-18T11:52:17;3.25;;;1.77;;
11344;SDS011;5727;42.600;23.028;2022-08-18T11:54:46;2.88;;;2.17;;
11344;SDS011;5727;42.600;23.028;2022-08-18T11:57:36;2.90;;;1.80;;
11344;SDS011;5727;42.600;23.028;2022-08-18T12:03:20;3.17;;;2.10;;
11344;SDS011;5727;42.600;23.028;2022-08-18T12:05:53;3.83;;;1.90;;
11344;SDS011;5727;42.600;23.028;2022-08-18T12:08:25;6.13;;;1.73;;
11344;SDS011;5727;42.600;23.028;2022-08-18T12:11:03;2.67;;;2.20;;
11344;SDS011;5727;42.600;23.028;2022-08-18T12:13:40;4.82;;;2.10;;
11344;SDS011;5727;42.600;23.028;2022-08-18T12:16:10;4.25;;;2.10;;
11344;SDS011;5727;42.600;23.028;2022-08-18T12:18:40;3.97;;;2.13;;
11344;SDS011;5727;42.600;23.028;2022-08-18T12:21:07;2.50;;;1.58;;
11344;SDS011;5727;42.600;23.028;2022-08-18T12:23:36;7.25;;;2.15;;
11344;SDS011;5727;42.600;23.028;2022-08-18T12:26:07;3.35;;;1.77;;
11344;SDS011;5727;42.600;23.028;2022-08-18T12:28:34;3.22;;;1.98;;
11344;SDS011;5727;42.600;23.028;2022-08-18T12:31:02;3.40;;;2.00;;
11344;SDS011;5727;42.600;23.028;2022-08-18T12:33:29;3.78;;;1.88;;
11344;SDS011;5727;42.600;23.028;2022-08-18T12:35:56;3.83;;;2.13;;
11344;SDS011;5727;42.600;23.028;2022-08-18T12:38:23;4.35;;;1.98;;
11344;SDS011;5727;42.600;23.028;2022-08-18T12:40:50;4.80;;;1.83;;
11344;SDS011;5727;42.600;23.028;2022-08-18T12:43:17;4.90;;;1.90;;
11344;SDS011;5727;42.600;23.028;2022-08-18T12:45:44;4.65;;;2.40;;
11344;SDS011;5727;42.600;23.028;2022-08-18T12:48:13;3.80;;;1.95;;
11344;SDS011;5727;42.600;23.028;2022-08-18T12:50:40;2.90;;;1.90;;
11344;SDS011;5727;42.600;23.028;2022-08-18T12:53:09;3.75;;;1.92;;
11344;SDS011;5727;42.600;23.028;2022-08-18T12:55:37;4.47;;;2.30;;
11344;SDS011;5727;42.600;23.028;2022-08-18T12:58:07;4.72;;;2.03;;
11344;SDS011;5727;42.600;23.028;2022-08-18T13:00:36;3.20;;;2.13;;
11344;SDS011;5727;42.600;23.028;2022-08-18T13:03:04;2.10;;;1.88;;
11344;SDS011;5727;42.600;23.028;2022-08-18T13:05:33;2.95;;;2.00;;
11344;SDS011;5727;42.600;23.028;2022-08-18T13:08:02;4.80;;;2.03;;
11344;SDS011;5727;42.600;23.028;2022-08-18T13:10:30;4.60;;;2.00;;
11344;SDS011;5727;42.600;23.028;2022-08-18T13:12:57;3.95;;;1.85;;
11344;SDS011;5727;42.600;23.028;2022-08-18T13:15:24;1.90;;;1.67;;
11344;SDS011;5727;42.600;23.028;2022-08-18T13:17:51;3.78;;;1.83;;
11344;SDS011;5727;42.600;23.028;2022-08-18T13:20:18;2.10;;;1.90;;
11344;SDS011;5727;42.600;23.028;2022-08-18T13:22:47;6.75;;;2.03;;
11344;SDS011;5727;42.600;23.028;2022-08-18T13:25:14;4.45;;;2.20;;
11344;SDS011;5727;42.600;23.028;2022-08-18T13:27:42;3.38;;;2.00;;
11344;SDS011;5727;42.600;23.028;2022-08-18T13:30:10;5.47;;;2.20;;
11344;SDS011;5727;42.600;23.028;2022-08-18T13:32:40;8.77;;;2.28;;
11344;SDS011;5727;42.600;23.028;2022-08-18T13:35:07;4.50;;;2.00;;
11344;SDS011;5727;42.600;23.028;2022-08-18T13:37:35;2.80;;;2.13;;
11344;SDS011;5727;42.600;23.028;2022-08-18T13:40:04;3.38;;;2.42;;
11344;SDS011;5727;42.600;23.028;2022-08-18T13:42:34;3.85;;;2.38;;
11344;SDS011;5727;42.600;23.028;2022-08-18T13:45:07;5.43;;;2.38;;
11344;SDS011;5727;42.600;23.028;2022-08-18T13:47:37;4.80;;;2.15;;
11344;SDS011;5727;42.600;23.028;2022-08-18T13:50:04;4.07;;;2.35;;
11344;SDS011;5727;42.600;23.028;2022-08-18T13:52:32;3.85;;;2.13;;
11344;SDS011;5727;42.600;23.028;2022-08-18T13:54:58;3.85;;;2.13;;
11344;SDS011;5727;42.600;23.028;2022-08-18T13:57:27;6.30;;;2.47;;
11344;SDS011;5727;42.600;23.028;2022-08-18T13:59:55;6.47;;;2.47;;
11344;SDS011;5727;42.600;23.028;2022-08-18T14:02:22;4.88;;;2.58;;
11344;SDS011;5727;42.600;23.028;2022-08-18T14:04:49;7.82;;;2.50;;
11344;SDS011;5727;42.600;23.028;2022-08-18T14:07:19;4.78;;;2.50;;
11344;SDS011;5727;42.600;23.028;2022-08-18T14:09:46;3.85;;;1.98;;
11344;SDS011;5727;42.600;23.028;2022-08-18T14:12:15;12.70;;;3.03;;
11344;SDS011;5727;42.600;23.028;2022-08-18T14:14:46;5.90;;;2.30;;
11344;SDS011;5727;42.600;23.028;2022-08-18T14:17:13;6.25;;;2.05;;
11344;SDS011;5727;42.600;23.028;2022-08-18T14:19:40;4.05;;;2.50;;
11344;SDS011;5727;42.600;23.028;2022-08-18T14:22:24;3.65;;;2.42;;
11344;SDS011;5727;42.600;23.028;2022-08-18T14:25:08;4.18;;;2.30;;
11344;SDS011;5727;42.600;23.028;2022-08-18T14:27:52;3.08;;;2.53;;
11344;SDS011;5727;42.600;23.028;2022-08-18T14:30:21;4.13;;;2.40;;
11344;SDS011;5727;42.600;23.028;2022-08-18T14:32:47;3.08;;;2.17;;
11344;SDS011;5727;42.600;23.028;2022-08-18T14:35:15;4.97;;;2.28;;
11344;SDS011;5727;42.600;23.028;2022-08-18T14:37:43;3.08;;;2.50;;
11344;SDS011;5727;42.600;23.028;2022-08-18T14:40:10;2.40;;;2.20;;
11344;SDS011;5727;42.600;23.028;2022-08-18T14:42:37;2.97;;;2.53;;
11344;SDS011;5727;42.600;23.028;2022-08-18T14:45:07;3.75;;;2.55;;
11344;SDS011;5727;42.600;23.028;2022-08-18T14:47:39;2.28;;;2.08;;
11344;SDS011;5727;42.600;23.028;2022-08-18T14:50:08;3.03;;;2.50;;
11344;SDS011;5727;42.600;23.028;2022-08-18T14:52:37;3.50;;;2.38;;
11344;SDS011;5727;42.600;23.028;2022-08-18T14:55:05;3.47;;;2.63;;
11344;SDS011;5727;42.600;23.028;2022-08-18T14:57:33;5.43;;;2.50;;
11344;SDS011;5727;42.600;23.028;2022-08-18T15:00:01;2.85;;;2.28;;
11344;SDS011;5727;42.600;23.028;2022-08-18T15:02:29;8.30;;;2.92;;
11344;SDS011;5727;42.600;23.028;2022-08-18T15:04:58;2.53;;;2.10;;
11344;SDS011;5727;42.600;23.028;2022-08-18T15:07:24;5.60;;;2.53;;
11344;SDS011;5727;42.600;23.028;2022-08-18T15:09:51;3.95;;;2.30;;
11344;SDS011;5727;42.600;23.028;2022-08-18T15:12:18;3.45;;;2.47;;
11344;SDS011;5727;42.600;23.028;2022-08-18T15:14:48;10.05;;;3.22;;
11344;SDS011;5727;42.600;23.028;2022-08-18T15:17:15;2.83;;;2.03;;
11344;SDS011;5727;42.600;23.028;2022-08-18T15:19:42;3.15;;;1.95;;
11344;SDS011;5727;42.600;23.028;2022-08-18T15:22:12;4.05;;;2.63;;
11344;SDS011;5727;42.600;23.028;2022-08-18T15:24:57;3.83;;;2.13;;
11344;SDS011;5727;42.600;23.028;2022-08-18T15:27:40;6.35;;;2.50;;
11344;SDS011;5727;42.600;23.028;2022-08-18T15:30:09;3.03;;;2.50;;
11344;SDS011;5727;42.600;23.028;2022-08-18T15:32:38;3.45;;;2.20;;
11344;SDS011;5727;42.600;23.028;2022-08-18T15:35:05;4.57;;;2.15;;